createdAt,value
2022-07-29T00:01:02.242Z,20.40
2022-07-29T00:03:30.782Z,20.30
2022-07-29T00:05:59.379Z,20.30
2022-07-29T00:08:27.689Z,20.30
2022-07-29T00:10:54.778Z,20.30
2022-07-29T00:13:32.148Z,20.30
2022-07-29T00:16:04.368Z,20.30
2022-07-29T00:18:32.480Z,20.30
2022-07-29T00:20:59.537Z,20.30
2022-07-29T00:23:26.429Z,20.20
2022-07-29T00:25:53.295Z,20.30
2022-07-29T00:28:20.215Z,20.30
2022-07-29T00:30:47.026Z,20.20
2022-07-29T00:33:13.970Z,20.20
2022-07-29T00:35:47.054Z,20.30
2022-07-29T00:38:15.508Z,20.30
2022-07-29T00:40:43.261Z,20.30
2022-07-29T00:43:12.033Z,20.20
2022-07-29T00:45:38.861Z,20.30
2022-07-29T00:48:06.115Z,20.30
2022-07-29T00:50:33.498Z,20.30
2022-07-29T00:53:00.996Z,20.30
2022-07-29T00:55:28.452Z,20.30
2022-07-29T00:57:57.862Z,20.40
2022-07-29T01:00:26.913Z,20.30
2022-07-29T01:02:53.815Z,20.40
2022-07-29T01:05:51.103Z,20.40
2022-07-29T01:08:15.404Z,20.40
2022-07-29T01:10:43.092Z,20.40
2022-07-29T01:13:11.578Z,20.40
2022-07-29T01:15:49.482Z,20.30
2022-07-29T01:18:29.403Z,20.30
2022-07-29T01:21:03.475Z,20.30
2022-07-29T01:23:55.153Z,20.30
2022-07-29T01:26:46.606Z,20.30
2022-07-29T01:29:40.573Z,20.30
2022-07-29T01:32:28.773Z,20.30
2022-07-29T01:35:17.599Z,20.30
2022-07-29T01:38:02.810Z,20.20
2022-07-29T01:40:40.196Z,20.30
2022-07-29T01:43:40.379Z,20.20
2022-07-29T01:46:14.774Z,20.20
2022-07-29T01:48:55.205Z,20.20
2022-07-29T01:51:28.958Z,20.20
2022-07-29T01:54:07.128Z,20.20
2022-07-29T01:56:36.204Z,20.20
2022-07-29T01:59:09.900Z,20.10
2022-07-29T02:01:40.702Z,20.20
2022-07-29T02:04:10.989Z,20.20
2022-07-29T02:06:41.834Z,20.30
2022-07-29T02:09:12.309Z,20.20
2022-07-29T02:11:40.322Z,20.20
2022-07-29T02:14:10.300Z,20.30
2022-07-29T02:16:39.903Z,20.20
2022-07-29T02:19:09.609Z,20.20
2022-07-29T02:21:39.956Z,20.20
2022-07-29T02:24:12.989Z,20.20
2022-07-29T02:26:42.512Z,20.20
2022-07-29T02:29:10.636Z,20.20
2022-07-29T02:31:38.966Z,20.20
2022-07-29T02:34:08.525Z,20.20
2022-07-29T02:36:35.901Z,20.20
2022-07-29T02:39:04.424Z,20.20
2022-07-29T02:42:04.846Z,20.20
2022-07-29T02:44:34.901Z,20.20
2022-07-29T02:47:13.814Z,20.20
2022-07-29T02:49:43.323Z,20.20
2022-07-29T02:52:19.551Z,20.20
2022-07-29T02:55:03.632Z,20.10
2022-07-29T02:57:35.793Z,20.00
2022-07-29T03:00:24.762Z,20.00
2022-07-29T03:02:54.861Z,19.90
2022-07-29T03:05:23.519Z,19.90
2022-07-29T03:07:56.675Z,19.90
2022-07-29T03:10:26.079Z,19.90
2022-07-29T03:12:53.845Z,19.80
2022-07-29T03:15:21.892Z,19.70
2022-07-29T03:17:52.063Z,19.60
2022-07-29T03:20:19.402Z,19.50
2022-07-29T03:22:49.537Z,19.50
2022-07-29T03:25:20.091Z,19.40
2022-07-29T03:27:48.220Z,19.40
2022-07-29T03:30:21.639Z,19.30
2022-07-29T03:32:52.032Z,19.30
2022-07-29T03:35:23.701Z,19.20
2022-07-29T03:37:51.096Z,19.20
2022-07-29T03:40:24.370Z,19.20
2022-07-29T03:42:54.947Z,19.20
2022-07-29T03:45:23.017Z,19.00
2022-07-29T03:48:00.345Z,19.00
2022-07-29T03:50:29.764Z,18.90
2022-07-29T03:52:56.987Z,18.80
2022-07-29T03:55:24.461Z,18.80
2022-07-29T03:57:52.328Z,18.80
2022-07-29T04:00:20.365Z,18.70
2022-07-29T04:02:49.484Z,18.70
2022-07-29T04:05:17.611Z,18.60
2022-07-29T04:07:53.396Z,18.70
2022-07-29T04:10:30.236Z,18.70
2022-07-29T04:13:00.051Z,18.70
2022-07-29T04:15:31.314Z,18.70
2022-07-29T04:18:00.047Z,18.70
2022-07-29T04:20:27.093Z,18.60
2022-07-29T04:22:53.863Z,18.70
2022-07-29T04:25:20.835Z,18.70
2022-07-29T04:28:02.665Z,18.70
2022-07-29T04:30:30.946Z,18.70
2022-07-29T04:32:57.815Z,18.70
2022-07-29T04:35:24.668Z,18.90
2022-07-29T04:37:51.415Z,19.00
2022-07-29T04:40:18.273Z,19.20
2022-07-29T04:42:46.860Z,19.40
2022-07-29T04:45:15.115Z,19.60
2022-07-29T04:47:43.088Z,20.00
2022-07-29T04:50:10.705Z,20.40
2022-07-29T04:52:37.888Z,20.80
2022-07-29T04:55:06.279Z,21.20
2022-07-29T04:57:33.327Z,21.70
2022-07-29T05:00:00.526Z,22.20
2022-07-29T05:02:27.348Z,22.50
2022-07-29T05:04:54.190Z,22.60
2022-07-29T05:07:21.048Z,22.40
2022-07-29T05:09:48.259Z,22.40
2022-07-29T05:12:15.081Z,22.20
2022-07-29T05:14:41.868Z,22.10
2022-07-29T05:17:08.973Z,22.10
2022-07-29T05:19:39.696Z,22.00
2022-07-29T05:22:06.906Z,21.90
2022-07-29T05:24:33.678Z,21.80
2022-07-29T05:27:00.597Z,21.70
2022-07-29T05:29:43.960Z,21.70
2022-07-29T05:32:13.743Z,21.60
2022-07-29T05:34:50.920Z,21.50
2022-07-29T05:37:20.060Z,21.40
2022-07-29T05:39:50.672Z,21.40
2022-07-29T05:42:24.282Z,21.30
2022-07-29T05:44:51.065Z,21.40
2022-07-29T05:47:18.003Z,21.40
2022-07-29T05:49:45.126Z,21.60
2022-07-29T05:52:12.023Z,21.60
2022-07-29T05:54:39.038Z,21.70
2022-07-29T05:57:06.410Z,21.70
2022-07-29T05:59:37.021Z,21.80
2022-07-29T06:02:05.945Z,21.90
2022-07-29T06:04:33.823Z,22.00
2022-07-29T06:07:00.804Z,22.10
2022-07-29T06:09:29.228Z,22.20
2022-07-29T06:11:56.337Z,22.30
2022-07-29T06:14:23.092Z,22.40
2022-07-29T06:16:50.611Z,22.50
2022-07-29T06:19:17.452Z,22.50
2022-07-29T06:21:45.011Z,22.60
2022-07-29T06:24:16.619Z,22.60
2022-07-29T06:26:44.954Z,22.70
2022-07-29T06:29:12.173Z,22.80
2022-07-29T06:31:39.148Z,22.90
2022-07-29T06:34:05.993Z,23.00
2022-07-29T06:36:39.833Z,23.00
2022-07-29T06:39:08.949Z,23.10
2022-07-29T06:41:36.350Z,23.20
2022-07-29T06:44:09.767Z,23.20
2022-07-29T06:46:37.610Z,23.20
2022-07-29T06:49:05.396Z,23.30
2022-07-29T06:51:32.260Z,23.30
2022-07-29T06:54:03.251Z,23.50
2022-07-29T06:56:39.195Z,23.50
2022-07-29T06:59:08.364Z,23.60
2022-07-29T07:01:36.193Z,23.70
2022-07-29T07:04:03.307Z,23.70
2022-07-29T07:06:30.118Z,23.80
2022-07-29T07:08:56.861Z,24.00
2022-07-29T07:11:25.815Z,23.90
2022-07-29T07:13:52.779Z,23.90
2022-07-29T07:16:19.643Z,23.90
2022-07-29T07:18:46.543Z,24.00
2022-07-29T07:21:18.747Z,24.10
2022-07-29T07:23:46.916Z,24.10
2022-07-29T07:26:13.663Z,24.20
2022-07-29T07:28:40.966Z,24.30
2022-07-29T07:31:07.778Z,24.40
2022-07-29T07:33:34.658Z,24.40
2022-07-29T07:36:01.474Z,24.40
2022-07-29T07:38:28.254Z,24.30
2022-07-29T07:40:55.016Z,24.40
2022-07-29T07:43:22.735Z,24.40
2022-07-29T07:45:49.548Z,24.50
2022-07-29T07:48:16.404Z,24.40
2022-07-29T07:50:44.735Z,24.40
2022-07-29T07:53:11.928Z,24.30
2022-07-29T07:58:30.367Z,24.50
2022-07-29T08:00:57.234Z,24.50
2022-07-29T08:03:24.084Z,24.60
2022-07-29T08:05:52.715Z,24.60
2022-07-29T08:08:19.749Z,24.70
2022-07-29T08:11:02.180Z,24.80
2022-07-29T08:13:32.865Z,24.80
2022-07-29T08:16:12.480Z,24.90
2022-07-29T08:18:40.676Z,24.90
2022-07-29T08:21:07.703Z,25.00
2022-07-29T08:23:50.515Z,25.00
2022-07-29T08:26:21.760Z,25.10
2022-07-29T08:28:51.177Z,25.30
2022-07-29T08:31:18.164Z,25.40
2022-07-29T08:33:44.960Z,25.40
2022-07-29T08:36:13.635Z,25.50
2022-07-29T08:38:40.505Z,25.60
2022-07-29T08:41:07.352Z,25.50
2022-07-29T08:43:36.039Z,25.50
2022-07-29T08:46:03.006Z,25.60
2022-07-29T08:48:30.187Z,25.70
2022-07-29T08:50:57.840Z,25.60
2022-07-29T08:53:28.123Z,25.60
2022-07-29T08:55:55.646Z,25.80
2022-07-29T08:58:24.668Z,26.00
2022-07-29T09:00:56.749Z,26.20
2022-07-29T09:03:28.216Z,26.30
2022-07-29T09:05:55.310Z,26.50
2022-07-29T09:08:22.556Z,26.50
2022-07-29T09:10:50.149Z,26.40
2022-07-29T09:13:18.708Z,26.30
2022-07-29T09:15:46.293Z,26.30
2022-07-29T09:18:20.506Z,26.10
2022-07-29T09:21:16.660Z,26.10
2022-07-29T09:24:00.389Z,26.10
2022-07-29T09:26:32.182Z,26.40
2022-07-29T09:29:00.277Z,26.50
2022-07-29T09:31:35.708Z,26.80
2022-07-29T09:34:03.037Z,27.20
2022-07-29T09:36:30.668Z,27.40
2022-07-29T09:39:04.156Z,27.60
2022-07-29T09:41:44.284Z,27.90
2022-07-29T09:44:11.605Z,28.00
2022-07-29T09:46:38.638Z,28.20
2022-07-29T09:49:13.967Z,28.30
2022-07-29T09:51:41.300Z,28.50
2022-07-29T09:54:37.839Z,28.50
2022-07-29T09:57:13.384Z,28.40
2022-07-29T09:59:50.195Z,28.40
2022-07-29T10:02:22.733Z,28.30
2022-07-29T10:04:50.841Z,28.20
2022-07-29T10:07:17.723Z,28.20
2022-07-29T10:09:57.976Z,28.10
2022-07-29T10:12:25.440Z,28.00
2022-07-29T10:14:52.494Z,27.30
2022-07-29T10:17:20.311Z,27.10
2022-07-29T10:19:47.908Z,27.00
2022-07-29T10:22:15.045Z,26.90
2022-07-29T10:24:42.021Z,26.90
2022-07-29T10:27:09.772Z,26.90
2022-07-29T10:29:37.279Z,26.60
2022-07-29T10:32:33.162Z,26.50
2022-07-29T10:35:21.830Z,26.40
2022-07-29T10:38:16.661Z,26.40
2022-07-29T10:41:20.981Z,26.40
2022-07-29T10:43:51.095Z,26.40
2022-07-29T10:46:19.475Z,26.60
2022-07-29T10:49:15.619Z,26.70
2022-07-29T10:51:55.828Z,26.70
2022-07-29T10:54:44.214Z,26.80
2022-07-29T10:57:17.141Z,26.80
2022-07-29T10:59:46.275Z,26.80
2022-07-29T11:02:42.239Z,27.00
2022-07-29T11:05:13.591Z,27.30
2022-07-29T11:08:02.231Z,27.60
2022-07-29T11:10:31.335Z,27.80
2022-07-29T11:12:59.408Z,27.60
2022-07-29T11:15:28.429Z,27.80
2022-07-29T11:17:59.480Z,27.90
2022-07-29T11:20:42.689Z,28.10
2022-07-29T11:23:33.767Z,28.30
2022-07-29T11:26:14.622Z,28.30
2022-07-29T11:28:55.753Z,28.30
2022-07-29T11:31:44.734Z,28.40
2022-07-29T11:34:28.147Z,28.60
2022-07-29T11:37:12.429Z,28.90
2022-07-29T11:39:55.556Z,29.00
2022-07-29T11:45:43.551Z,29.40
2022-07-29T11:48:29.607Z,29.70
2022-07-29T11:50:49.052Z,29.80
2022-07-29T11:53:17.021Z,29.90
2022-07-29T11:55:50.813Z,30.10
2022-07-29T11:58:26.343Z,30.20
2022-07-29T12:00:55.715Z,30.30
2022-07-29T12:03:35.478Z,30.20
2022-07-29T12:06:04.753Z,30.10
2022-07-29T12:07:01.818Z,29.30
2022-07-29T12:08:41.655Z,30.00
2022-07-29T12:11:17.677Z,30.00
2022-07-29T12:13:47.369Z,30.10
2022-07-29T12:16:25.502Z,30.10
2022-07-29T12:19:04.093Z,30.00
2022-07-29T12:21:56.937Z,30.00
2022-07-29T12:24:26.925Z,30.00
2022-07-29T12:26:59.511Z,30.00
2022-07-29T12:29:34.717Z,29.90
2022-07-29T12:32:05.561Z,29.80
2022-07-29T12:34:33.176Z,29.60
2022-07-29T12:37:00.771Z,29.70
2022-07-29T12:39:29.205Z,29.80
2022-07-29T12:42:04.537Z,29.80
2022-07-29T12:44:51.444Z,29.80
2022-07-29T12:47:20.389Z,29.50
2022-07-29T12:49:48.674Z,29.20
2022-07-29T12:52:28.753Z,29.20
2022-07-29T12:54:56.107Z,29.30
2022-07-29T12:57:23.355Z,29.10
2022-07-29T13:00:12.321Z,29.10
2022-07-29T13:02:41.049Z,29.00
2022-07-29T13:05:09.321Z,28.90
2022-07-29T13:07:39.757Z,28.90
2022-07-29T13:10:24.117Z,28.90
2022-07-29T13:13:20.467Z,28.60
2022-07-29T13:15:49.971Z,28.30
2022-07-29T13:18:34.470Z,28.00
2022-07-29T13:21:15.343Z,27.80
2022-07-29T13:23:43.299Z,27.70
2022-07-29T13:26:12.360Z,27.60
2022-07-29T13:28:40.099Z,27.40
2022-07-29T13:31:06.860Z,27.20
2022-07-29T13:33:33.622Z,27.10
2022-07-29T13:36:00.498Z,26.90
2022-07-29T13:38:31.075Z,26.70
2022-07-29T13:40:58.573Z,26.40
2022-07-29T13:43:25.539Z,26.30
2022-07-29T13:45:52.991Z,26.30
2022-07-29T13:48:19.967Z,26.20
2022-07-29T13:50:47.757Z,26.00
2022-07-29T13:53:17.580Z,26.10
2022-07-29T13:55:46.475Z,26.20
2022-07-29T13:58:14.149Z,26.40
2022-07-29T14:00:40.911Z,26.60
2022-07-29T14:03:07.756Z,26.60
2022-07-29T14:05:34.578Z,26.80
2022-07-29T14:08:01.348Z,27.00
2022-07-29T14:10:28.424Z,27.10
2022-07-29T14:12:55.312Z,27.20
2022-07-29T14:15:22.091Z,27.40
2022-07-29T14:17:48.901Z,27.50
2022-07-29T14:20:17.106Z,27.40
2022-07-29T14:22:45.135Z,27.50
2022-07-29T14:25:14.910Z,27.50
2022-07-29T14:27:43.798Z,27.70
2022-07-29T14:30:11.468Z,27.80
2022-07-29T14:32:38.332Z,27.70
2022-07-29T14:35:06.575Z,27.40
2022-07-29T14:37:39.875Z,27.30
2022-07-29T14:40:08.991Z,27.20
2022-07-29T14:42:37.124Z,27.10
2022-07-29T14:45:05.837Z,27.00
2022-07-29T14:47:33.528Z,27.00
2022-07-29T14:50:00.710Z,27.10
2022-07-29T14:52:27.447Z,27.20
2022-07-29T14:54:54.564Z,27.30
2022-07-29T14:57:21.272Z,27.20
2022-07-29T14:59:48.021Z,27.10
2022-07-29T15:02:14.945Z,26.80
2022-07-29T15:04:41.731Z,26.70
2022-07-29T15:07:09.175Z,26.60
2022-07-29T15:09:40.295Z,26.60
2022-07-29T15:12:16.719Z,26.50
2022-07-29T15:14:43.553Z,26.40
2022-07-29T15:17:10.598Z,26.30
2022-07-29T15:19:37.493Z,26.20
2022-07-29T15:22:06.273Z,26.20
2022-07-29T15:24:33.540Z,26.20
2022-07-29T15:27:00.619Z,26.20
2022-07-29T15:29:27.381Z,26.00
2022-07-29T15:31:54.382Z,26.00
2022-07-29T15:34:21.810Z,25.90
2022-07-29T15:36:52.414Z,25.90
2022-07-29T15:39:21.446Z,25.80
2022-07-29T15:41:48.376Z,25.80
2022-07-29T15:44:15.147Z,25.80
2022-07-29T15:47:01.199Z,25.80
2022-07-29T15:49:47.462Z,25.70
2022-07-29T15:52:26.051Z,25.60
2022-07-29T15:54:57.864Z,25.60
2022-07-29T15:57:25.244Z,25.40
2022-07-29T15:59:52.193Z,25.30
2022-07-29T16:02:19.137Z,25.20
2022-07-29T16:04:45.966Z,25.20
2022-07-29T16:07:12.727Z,25.00
2022-07-29T16:09:41.701Z,24.90
2022-07-29T16:12:14.806Z,24.90
2022-07-29T16:14:42.878Z,24.80
2022-07-29T16:17:09.716Z,24.80
2022-07-29T16:19:41.773Z,24.80
2022-07-29T16:22:10.052Z,24.70
2022-07-29T16:24:37.187Z,24.60
2022-07-29T16:27:04.321Z,24.50
2022-07-29T16:29:31.136Z,24.50
2022-07-29T16:31:57.974Z,24.50
2022-07-29T16:34:24.767Z,24.50
2022-07-29T16:36:51.501Z,24.40
2022-07-29T16:39:18.361Z,24.40
2022-07-29T16:41:45.116Z,24.30
2022-07-29T16:44:11.927Z,24.30
2022-07-29T16:46:39.108Z,24.20
2022-07-29T16:49:08.344Z,24.20
2022-07-29T16:51:35.252Z,24.10
2022-07-29T16:54:02.279Z,24.00
2022-07-29T16:56:29.040Z,23.90
2022-07-29T16:58:58.025Z,23.90
2022-07-29T17:01:24.783Z,24.00
2022-07-29T17:04:06.585Z,23.90
2022-07-29T17:06:38.503Z,24.00
2022-07-29T17:09:06.897Z,23.90
2022-07-29T17:11:53.482Z,23.80
2022-07-29T17:14:26.388Z,23.70
2022-07-29T17:17:00.203Z,23.70
2022-07-29T17:19:29.611Z,23.60
2022-07-29T17:22:04.658Z,23.50
2022-07-29T17:24:36.051Z,23.40
2022-07-29T17:27:02.881Z,23.30
2022-07-29T17:29:30.002Z,23.30
2022-07-29T17:31:59.312Z,23.20
2022-07-29T17:34:26.792Z,23.10
2022-07-29T17:36:53.539Z,23.00
2022-07-29T17:39:20.327Z,23.00
2022-07-29T17:41:47.216Z,22.90
2022-07-29T17:44:14.285Z,22.80
2022-07-29T17:46:41.306Z,22.80
2022-07-29T17:49:08.234Z,22.50
2022-07-29T17:51:35.001Z,22.30
2022-07-29T17:54:01.801Z,22.20
2022-07-29T17:56:28.534Z,21.90
2022-07-29T17:58:55.572Z,21.70
2022-07-29T18:01:23.824Z,21.50
2022-07-29T18:03:50.852Z,21.40
2022-07-29T18:06:17.945Z,21.20
2022-07-29T18:08:47.535Z,21.00
2022-07-29T18:11:15.126Z,20.80
2022-07-29T18:13:42.536Z,20.50
2022-07-29T18:16:09.409Z,20.50
2022-07-29T18:18:36.464Z,20.50
2022-07-29T18:21:03.688Z,20.40
2022-07-29T18:23:30.799Z,20.40
2022-07-29T18:25:57.899Z,20.40
2022-07-29T18:28:25.579Z,20.30
2022-07-29T18:31:00.815Z,20.50
2022-07-29T18:33:27.779Z,20.50
2022-07-29T18:36:04.183Z,20.50
2022-07-29T18:38:38.480Z,20.50
2022-07-29T18:41:05.407Z,20.50
2022-07-29T18:43:32.250Z,20.50
2022-07-29T18:45:59.210Z,20.40
2022-07-29T18:48:26.320Z,20.40
2022-07-29T18:50:53.343Z,20.40
2022-07-29T18:53:20.295Z,20.30
2022-07-29T18:55:47.089Z,20.30
2022-07-29T18:58:13.979Z,20.20
2022-07-29T19:00:40.794Z,20.30
2022-07-29T19:03:08.935Z,20.30
2022-07-29T19:05:35.981Z,20.20
2022-07-29T19:08:02.849Z,20.10
2022-07-29T19:10:30.419Z,20.00
2022-07-29T19:12:57.737Z,19.90
2022-07-29T19:15:24.828Z,19.80
2022-07-29T19:17:51.617Z,19.60
2022-07-29T19:20:19.322Z,19.60
2022-07-29T19:22:46.525Z,19.50
2022-07-29T19:25:13.604Z,19.40
2022-07-29T19:27:42.242Z,19.30
2022-07-29T19:30:09.609Z,19.30
2022-07-29T19:32:37.414Z,19.10
2022-07-29T19:35:24.202Z,19.10
2022-07-29T19:37:55.910Z,19.00
2022-07-29T19:40:23.289Z,19.00
2022-07-29T19:42:51.803Z,19.00
2022-07-29T19:45:20.473Z,19.00
2022-07-29T19:47:47.888Z,18.90
2022-07-29T19:50:15.824Z,18.90
2022-07-29T19:52:43.570Z,18.70
2022-07-29T19:55:10.821Z,18.70
2022-07-29T19:57:41.020Z,18.70
2022-07-29T20:00:11.471Z,18.60
2022-07-29T20:02:40.185Z,18.60
2022-07-29T20:05:08.692Z,18.60
2022-07-29T20:07:36.379Z,18.50
2022-07-29T20:10:04.123Z,18.60
2022-07-29T20:12:31.009Z,18.50
2022-07-29T20:14:58.621Z,18.60
2022-07-29T20:17:25.737Z,18.40
2022-07-29T20:19:53.234Z,18.50
2022-07-29T20:22:21.881Z,18.50
2022-07-29T20:24:49.279Z,18.40
2022-07-29T20:27:16.102Z,18.40
2022-07-29T20:29:43.097Z,18.40
2022-07-29T20:32:12.605Z,18.30
2022-07-29T20:34:41.451Z,18.30
2022-07-29T20:37:14.461Z,18.30
2022-07-29T20:39:43.968Z,18.20
2022-07-29T20:42:10.737Z,18.20
2022-07-29T20:44:37.509Z,18.20
2022-07-29T20:47:04.328Z,18.20
2022-07-29T20:49:31.226Z,18.20
2022-07-29T20:51:58.480Z,18.20
2022-07-29T20:54:25.308Z,18.10
2022-07-29T20:56:52.303Z,18.10
2022-07-29T20:59:19.322Z,18.10
2022-07-29T21:01:46.565Z,18.10
2022-07-29T21:04:13.392Z,18.10
2022-07-29T21:06:40.117Z,18.10
2022-07-29T21:09:07.641Z,18.00
2022-07-29T21:11:44.758Z,18.10
2022-07-29T21:14:29.734Z,18.10
2022-07-29T21:16:56.980Z,18.00
2022-07-29T21:19:23.875Z,18.00
2022-07-29T21:21:51.060Z,18.00
2022-07-29T21:24:19.081Z,18.00
2022-07-29T21:26:54.535Z,18.00
2022-07-29T21:29:34.449Z,17.90
2022-07-29T21:32:01.381Z,17.90
2022-07-29T21:34:28.916Z,17.90
2022-07-29T21:36:55.835Z,17.90
2022-07-29T21:39:22.621Z,17.90
2022-07-29T21:41:49.371Z,17.90
2022-07-29T21:44:16.217Z,17.90
2022-07-29T21:46:43.295Z,17.80
2022-07-29T21:49:10.198Z,17.80
2022-07-29T21:51:37.165Z,17.70
2022-07-29T21:54:05.351Z,17.70
2022-07-29T21:56:33.388Z,17.60
2022-07-29T21:59:02.325Z,17.60
2022-07-29T22:01:29.414Z,17.60
2022-07-29T22:04:06.382Z,17.50
2022-07-29T22:06:34.529Z,17.60
2022-07-29T22:09:01.472Z,17.50
2022-07-29T22:11:28.283Z,17.50
2022-07-29T22:13:55.074Z,17.50
2022-07-29T22:16:22.495Z,17.50
2022-07-29T22:18:49.390Z,17.50
2022-07-29T22:21:16.318Z,17.50
2022-07-29T22:23:43.224Z,17.50
2022-07-29T22:26:10.203Z,17.50
2022-07-29T22:28:36.987Z,17.50
2022-07-29T22:31:03.907Z,17.50
2022-07-29T22:33:31.232Z,17.40
2022-07-29T22:35:58.231Z,17.40
2022-07-29T22:38:25.240Z,17.40
2022-07-29T22:40:52.608Z,17.40
2022-07-29T22:43:20.135Z,17.30
2022-07-29T22:45:48.365Z,17.30
2022-07-29T22:48:15.492Z,17.40
2022-07-29T22:50:42.714Z,17.40
2022-07-29T22:53:10.817Z,17.30
2022-07-29T22:55:38.108Z,17.40
2022-07-29T22:58:10.973Z,17.30
2022-07-29T23:00:37.848Z,17.30
2022-07-29T23:03:04.645Z,17.40
2022-07-29T23:05:33.278Z,17.40
2022-07-29T23:08:00.952Z,17.40
2022-07-29T23:10:28.786Z,17.30
2022-07-29T23:12:55.597Z,17.30
2022-07-29T23:15:23.311Z,17.30
2022-07-29T23:17:50.185Z,17.30
2022-07-29T23:20:19.942Z,17.30
2022-07-29T23:22:46.757Z,17.30
2022-07-29T23:25:13.633Z,17.30
2022-07-29T23:27:40.849Z,17.30
2022-07-29T23:30:08.441Z,17.30
2022-07-29T23:32:35.289Z,17.30
2022-07-29T23:35:02.287Z,17.20
2022-07-29T23:37:29.087Z,17.30
2022-07-29T23:39:56.182Z,17.30
2022-07-29T23:42:23.253Z,17.20
2022-07-29T23:44:50.172Z,17.20
2022-07-29T23:47:16.972Z,17.20
2022-07-29T23:49:44.077Z,17.20
2022-07-29T23:52:12.630Z,17.20
2022-07-29T23:54:39.494Z,17.20
2022-07-29T23:57:06.329Z,17.20
2022-07-29T23:59:33.202Z,17.20
